createdAt,value
2018-03-06T00:01:04.015Z,0
2018-03-06T00:02:13.941Z,0
2018-03-06T00:03:23.995Z,0
2018-03-06T00:04:35.547Z,0
2018-03-06T00:05:48.779Z,0
2018-03-06T00:07:01.391Z,0
2018-03-06T00:08:12.117Z,0
2018-03-06T00:09:23.142Z,0
2018-03-06T00:10:32.646Z,0
2018-03-06T00:11:42.728Z,0
2018-03-06T00:12:52.227Z,0
2018-03-06T00:14:03.901Z,0
2018-03-06T00:15:15.039Z,0
2018-03-06T00:16:27.851Z,0
2018-03-06T00:17:38.106Z,0
2018-03-06T00:18:48.200Z,0
2018-03-06T00:19:58.325Z,0
2018-03-06T00:21:07.916Z,0
2018-03-06T00:22:18.117Z,0
2018-03-06T00:23:29.524Z,0
2018-03-06T00:24:40.053Z,0
2018-03-06T00:25:50.719Z,0
2018-03-06T00:27:00.866Z,0
2018-03-06T00:28:10.676Z,0
2018-03-06T00:29:20.180Z,0
2018-03-06T00:30:33.367Z,0
2018-03-06T00:31:45.875Z,0
2018-03-06T00:32:56.565Z,0
2018-03-06T00:34:07.292Z,0
2018-03-06T00:35:17.114Z,0
2018-03-06T00:36:26.950Z,0
2018-03-06T00:37:36.464Z,0
2018-03-06T00:38:46.524Z,0
2018-03-06T00:39:59.750Z,0
2018-03-06T00:41:12.325Z,0
2018-03-06T00:42:23.234Z,0
2018-03-06T00:43:33.027Z,0
2018-03-06T00:44:42.824Z,0
2018-03-06T00:45:54.322Z,0
2018-03-06T00:47:07.701Z,0
2018-03-06T00:48:18.610Z,0
2018-03-06T00:49:28.416Z,0
2018-03-06T00:50:38.483Z,0
2018-03-06T00:51:48.272Z,0
2018-03-06T00:53:00.988Z,0
2018-03-06T00:54:13.254Z,0
2018-03-06T00:55:24.517Z,0
2018-03-06T00:56:34.735Z,0
2018-03-06T00:57:44.812Z,0
2018-03-06T00:58:54.325Z,0
2018-03-06T01:00:06.083Z,0
2018-03-06T01:01:19.736Z,0
2018-03-06T01:02:31.386Z,0
2018-03-06T01:03:42.440Z,0
2018-03-06T01:04:52.235Z,0
2018-03-06T01:06:02.050Z,0
2018-03-06T01:07:12.114Z,0
2018-03-06T01:08:23.731Z,0
2018-03-06T01:09:36.944Z,0
2018-03-06T01:10:48.166Z,0
2018-03-06T01:11:58.895Z,0
2018-03-06T01:13:08.388Z,0
2018-03-06T01:14:18.472Z,0
2018-03-06T01:15:28.569Z,0
2018-03-06T01:16:40.792Z,0
2018-03-06T01:17:53.235Z,0
2018-03-06T01:19:04.991Z,0
2018-03-06T01:20:15.863Z,0
2018-03-06T01:21:25.943Z,0
2018-03-06T01:22:36.038Z,0
2018-03-06T01:23:45.845Z,0
2018-03-06T01:24:56.648Z,0
2018-03-06T01:26:08.825Z,0
2018-03-06T01:27:19.577Z,0
2018-03-06T01:28:30.551Z,0
2018-03-06T01:29:40.054Z,0
2018-03-06T01:30:50.139Z,0
2018-03-06T01:32:03.234Z,0
2018-03-06T01:33:15.963Z,0
2018-03-06T01:34:26.403Z,0
2018-03-06T01:35:35.904Z,0
2018-03-06T01:36:46.008Z,0
2018-03-06T01:37:56.490Z,0
2018-03-06T01:39:07.651Z,0
2018-03-06T01:40:18.626Z,0
2018-03-06T01:41:29.640Z,0
2018-03-06T01:42:39.141Z,0
2018-03-06T01:43:49.227Z,0
2018-03-06T01:45:02.021Z,0
2018-03-06T01:46:14.463Z,0
2018-03-06T01:47:25.276Z,0
2018-03-06T01:48:35.375Z,0
2018-03-06T01:49:45.038Z,0
2018-03-06T01:50:54.819Z,0
2018-03-06T01:52:08.233Z,0
2018-03-06T01:53:20.599Z,0
2018-03-06T01:54:30.866Z,0
2018-03-06T01:55:40.958Z,0
2018-03-06T01:56:51.018Z,0
2018-03-06T01:58:00.831Z,0
2018-03-06T01:59:12.045Z,0
2018-03-06T02:00:24.940Z,0
2018-03-06T02:01:36.006Z,0
2018-03-06T02:02:46.109Z,0
2018-03-06T02:03:55.912Z,0
2018-03-06T02:05:05.733Z,0
2018-03-06T02:06:18.542Z,0
2018-03-06T02:07:30.551Z,0
2018-03-06T02:08:42.149Z,0
2018-03-06T02:09:53.269Z,0
2018-03-06T02:11:03.070Z,0
2018-03-06T02:12:12.870Z,0
2018-03-06T02:13:22.984Z,0
2018-03-06T02:14:34.876Z,0
2018-03-06T02:15:47.507Z,0
2018-03-06T02:16:58.925Z,0
2018-03-06T02:18:08.882Z,0
2018-03-06T02:19:18.982Z,0
2018-03-06T02:20:29.073Z,0
2018-03-06T02:21:39.211Z,0
2018-03-06T02:22:49.306Z,0
2018-03-06T02:24:01.263Z,0
2018-03-06T02:25:14.042Z,0
2018-03-06T02:26:24.912Z,0
2018-03-06T02:27:34.733Z,0
2018-03-06T02:28:44.856Z,0
2018-03-06T02:29:54.638Z,0
2018-03-06T02:31:07.262Z,0
2018-03-06T02:32:20.515Z,0
2018-03-06T02:33:31.869Z,0
2018-03-06T02:34:42.196Z,0
2018-03-06T02:35:52.299Z,0
2018-03-06T02:37:02.378Z,0
2018-03-06T02:38:12.185Z,0
2018-03-06T02:39:22.306Z,0
2018-03-06T02:40:33.282Z,0
2018-03-06T02:41:44.929Z,0
2018-03-06T02:42:55.730Z,0
2018-03-06T02:44:05.800Z,0
2018-03-06T02:45:15.323Z,0
2018-03-06T02:46:25.622Z,0
2018-03-06T02:47:38.647Z,0
2018-03-06T02:48:50.996Z,0
2018-03-06T02:50:02.032Z,0
2018-03-06T02:51:11.287Z,0
2018-03-06T02:52:21.372Z,0
2018-03-06T02:53:31.490Z,0
2018-03-06T02:54:42.527Z,0
2018-03-06T02:55:55.789Z,0
2018-03-06T02:57:08.080Z,0
2018-03-06T02:58:18.935Z,0
2018-03-06T02:59:28.713Z,0
2018-03-06T03:00:38.770Z,0
2018-03-06T03:01:48.571Z,0
2018-03-06T03:02:58.456Z,0
2018-03-06T03:04:10.551Z,0
2018-03-06T03:05:23.827Z,0
2018-03-06T03:06:34.378Z,0
2018-03-06T03:07:45.275Z,0
2018-03-06T03:08:54.776Z,0
2018-03-06T03:10:04.877Z,0
2018-03-06T03:11:14.691Z,0
2018-03-06T03:12:27.673Z,0
2018-03-06T03:13:40.050Z,0
2018-03-06T03:14:50.961Z,0
2018-03-06T03:16:00.759Z,0
2018-03-06T03:17:10.555Z,0
2018-03-06T03:18:20.644Z,0
2018-03-06T03:19:30.146Z,0
2018-03-06T03:20:40.242Z,0
2018-03-06T03:21:53.326Z,0
2018-03-06T03:23:04.589Z,0
2018-03-06T03:24:14.090Z,0
2018-03-06T03:25:24.171Z,0
2018-03-06T03:26:33.955Z,0
2018-03-06T03:27:45.630Z,0
2018-03-06T03:28:58.106Z,0
2018-03-06T03:30:09.052Z,0
2018-03-06T03:31:19.146Z,0
2018-03-06T03:32:29.209Z,0
2018-03-06T03:33:42.794Z,0
2018-03-06T03:34:55.173Z,0
2018-03-06T03:36:06.000Z,0
2018-03-06T03:37:16.077Z,0
2018-03-06T03:38:25.891Z,0
2018-03-06T03:39:37.144Z,0
2018-03-06T03:40:50.109Z,0
2018-03-06T03:41:59.888Z,0
2018-03-06T03:43:09.697Z,0
2018-03-06T03:44:19.780Z,0
2018-03-06T03:45:30.903Z,0
2018-03-06T03:46:44.047Z,0
2018-03-06T03:47:54.849Z,0
2018-03-06T03:49:05.818Z,0
2018-03-06T03:50:15.877Z,0
2018-03-06T03:51:25.973Z,0
2018-03-06T03:52:38.349Z,0
2018-03-06T03:53:51.157Z,0
2018-03-06T03:55:01.164Z,0
2018-03-06T03:56:10.980Z,0
2018-03-06T03:57:20.774Z,0
2018-03-06T03:58:30.883Z,0
2018-03-06T03:59:42.288Z,0
2018-03-06T04:04:04.275Z,0
2018-03-06T04:05:13.516Z,0
2018-03-06T04:06:23.916Z,0
2018-03-06T04:07:34.015Z,0
2018-03-06T04:08:47.148Z,0
2018-03-06T04:09:59.572Z,0
2018-03-06T04:11:09.632Z,0
2018-03-06T04:12:19.687Z,0
2018-03-06T04:13:29.788Z,0
2018-03-06T04:14:39.559Z,0
2018-03-06T04:15:53.044Z,0
2018-03-06T04:17:03.332Z,0
2018-03-06T04:18:13.496Z,0
2018-03-06T04:19:23.616Z,0
2018-03-06T04:20:33.410Z,0
2018-03-06T04:21:45.715Z,0
2018-03-06T04:22:58.970Z,0
2018-03-06T04:24:09.551Z,0
2018-03-06T04:25:20.474Z,0
2018-03-06T04:26:30.320Z,0
2018-03-06T04:27:40.404Z,0
2018-03-06T04:28:50.466Z,0
2018-03-06T04:30:02.934Z,0
2018-03-06T04:31:13.442Z,0
2018-03-06T04:32:23.955Z,0
2018-03-06T04:33:33.827Z,0
2018-03-06T04:34:43.602Z,0
2018-03-06T04:35:56.446Z,0
2018-03-06T04:37:09.920Z,0
2018-03-06T04:38:19.409Z,0
2018-03-06T04:39:29.781Z,0
2018-03-06T04:40:39.578Z,0
2018-03-06T04:41:49.409Z,0
2018-03-06T04:43:00.469Z,0
2018-03-06T04:44:12.351Z,0
2018-03-06T04:45:24.563Z,0
2018-03-06T04:46:35.285Z,0
2018-03-06T04:47:45.378Z,0
2018-03-06T04:48:55.449Z,0
2018-03-06T04:50:04.697Z,0
2018-03-06T04:51:17.050Z,0
2018-03-06T04:52:30.004Z,0
2018-03-06T04:53:40.722Z,0
2018-03-06T04:54:50.851Z,0
2018-03-06T04:56:00.929Z,0
2018-03-06T04:57:11.000Z,0
2018-03-06T04:58:20.783Z,0
2018-03-06T04:59:31.506Z,0
2018-03-06T05:00:43.506Z,0
2018-03-06T05:01:54.303Z,0
2018-03-06T05:03:04.474Z,0
2018-03-06T05:04:14.297Z,0
2018-03-06T05:05:24.368Z,0
2018-03-06T05:06:33.882Z,0
2018-03-06T05:07:44.714Z,0
2018-03-06T05:08:58.084Z,0
2018-03-06T05:10:08.929Z,0
2018-03-06T05:11:19.577Z,0
2018-03-06T05:12:29.667Z,0
2018-03-06T05:13:41.916Z,0
2018-03-06T05:14:54.843Z,0
2018-03-06T05:16:05.407Z,0
2018-03-06T05:17:15.180Z,0
2018-03-06T05:18:24.693Z,0
2018-03-06T05:19:34.833Z,0
2018-03-06T05:20:44.373Z,0
2018-03-06T05:21:56.412Z,0
2018-03-06T05:23:08.641Z,0
2018-03-06T05:24:18.972Z,0
2018-03-06T05:25:28.755Z,0
2018-03-06T05:26:38.849Z,0
2018-03-06T05:27:48.934Z,0
2018-03-06T05:28:59.013Z,0
2018-03-06T05:30:08.807Z,0
2018-03-06T05:31:21.457Z,0
2018-03-06T05:32:33.494Z,0
2018-03-06T05:33:44.378Z,0
2018-03-06T05:34:54.164Z,0
2018-03-06T05:36:04.312Z,0
2018-03-06T05:37:14.383Z,0
2018-03-06T05:38:24.478Z,0
2018-03-06T05:39:33.403Z,0
2018-03-06T05:40:43.878Z,0
2018-03-06T05:41:55.261Z,0
2018-03-06T05:43:04.778Z,0
2018-03-06T05:44:14.839Z,0
2018-03-06T05:45:24.933Z,0
2018-03-06T05:46:34.718Z,0
2018-03-06T05:47:44.786Z,0
2018-03-06T05:48:57.790Z,0
2018-03-06T05:50:09.315Z,5
2018-03-06T05:51:19.952Z,5
2018-03-06T05:52:29.183Z,5
2018-03-06T05:53:38.973Z,5
2018-03-06T05:54:49.024Z,5
2018-03-06T05:55:59.110Z,5
2018-03-06T05:57:11.625Z,5
2018-03-06T05:58:24.473Z,10
2018-03-06T05:59:34.874Z,10
2018-03-06T06:00:45.727Z,10
2018-03-06T06:01:55.911Z,10
2018-03-06T06:03:05.977Z,10
2018-03-06T06:04:16.098Z,15
2018-03-06T06:05:29.470Z,15
2018-03-06T06:06:40.896Z,15
2018-03-06T06:07:51.700Z,15
2018-03-06T06:09:01.846Z,20
2018-03-06T06:10:15.345Z,20
2018-03-06T06:11:27.177Z,20
2018-03-06T06:12:36.674Z,20
2018-03-06T06:13:46.734Z,25
2018-03-06T06:14:56.770Z,25
2018-03-06T06:16:06.496Z,25
2018-03-06T06:17:16.485Z,30
2018-03-06T06:18:26.470Z,30
2018-03-06T06:19:36.559Z,35
2018-03-06T06:20:46.290Z,35
2018-03-06T06:21:56.026Z,35
2018-03-06T06:23:05.491Z,40
2018-03-06T06:24:15.475Z,40
2018-03-06T06:25:25.522Z,40
2018-03-06T06:26:35.529Z,45
2018-03-06T06:27:45.530Z,45
2018-03-06T06:28:55.288Z,50
2018-03-06T06:30:04.508Z,50
2018-03-06T06:31:14.548Z,55
2018-03-06T06:32:24.546Z,55
2018-03-06T06:33:34.536Z,55
2018-03-06T06:34:44.533Z,60
2018-03-06T06:35:54.522Z,60
2018-03-06T06:37:04.563Z,60
2018-03-06T06:38:14.285Z,65
2018-03-06T06:39:23.474Z,65
2018-03-06T06:40:33.492Z,65
2018-03-06T06:41:43.511Z,65
2018-03-06T06:42:53.341Z,65
2018-03-06T06:44:03.062Z,70
2018-03-06T06:45:12.518Z,70
2018-03-06T06:46:22.508Z,70
2018-03-06T06:47:32.230Z,70
2018-03-06T06:48:41.962Z,75
2018-03-06T06:49:51.948Z,80
2018-03-06T06:51:01.940Z,80
2018-03-06T06:52:11.661Z,85
2018-03-06T06:53:21.401Z,85
2018-03-06T06:54:30.591Z,85
2018-03-06T06:55:40.580Z,90
2018-03-06T06:56:50.567Z,95
2018-03-06T06:58:00.563Z,95
2018-03-06T06:59:10.286Z,95
2018-03-06T07:00:20.271Z,95
2018-03-06T07:01:30.007Z,100
2018-03-06T07:02:39.738Z,105
2018-03-06T07:03:49.732Z,110
2018-03-06T07:04:59.721Z,110
2018-03-06T07:06:09.449Z,115
2018-03-06T07:07:19.433Z,120
2018-03-06T07:08:29.154Z,120
2018-03-06T07:09:39.144Z,125
2018-03-06T07:10:49.126Z,130
2018-03-06T07:11:59.120Z,130
2018-03-06T07:13:09.106Z,135
2018-03-06T07:14:19.102Z,135
2018-03-06T07:15:29.093Z,140
2018-03-06T07:16:39.080Z,145
2018-03-06T07:17:48.810Z,145
2018-03-06T07:18:58.797Z,145
2018-03-06T07:20:08.567Z,145
2018-03-06T07:21:18.480Z,145
2018-03-06T07:22:28.467Z,145
2018-03-06T07:23:38.459Z,150
2018-03-06T07:24:48.445Z,155
2018-03-06T07:25:57.909Z,155
2018-03-06T07:27:07.413Z,160
2018-03-06T07:28:17.399Z,160
2018-03-06T07:29:27.398Z,165
2018-03-06T07:30:36.852Z,165
2018-03-06T07:31:46.915Z,170
2018-03-06T07:32:56.934Z,175
2018-03-06T07:34:06.657Z,180
2018-03-06T07:35:16.487Z,185
2018-03-06T07:36:26.306Z,190
2018-03-06T07:37:36.035Z,195
2018-03-06T07:38:45.759Z,195
2018-03-06T07:39:55.776Z,200
2018-03-06T07:41:05.502Z,205
2018-03-06T07:42:14.691Z,205
2018-03-06T07:43:24.417Z,210
2018-03-06T07:44:33.894Z,215
2018-03-06T07:45:43.346Z,220
2018-03-06T07:46:53.071Z,220
2018-03-06T07:48:02.796Z,220
2018-03-06T07:49:12.519Z,220
2018-03-06T07:50:22.528Z,220
2018-03-06T07:51:32.251Z,225
2018-03-06T07:52:42.334Z,230
2018-03-06T07:53:51.791Z,235
2018-03-06T07:55:01.246Z,240
2018-03-06T07:56:10.710Z,245
2018-03-06T07:57:20.817Z,245
2018-03-06T07:58:30.591Z,250
2018-03-06T07:59:40.323Z,255
2018-03-06T08:00:50.318Z,250
2018-03-06T08:01:59.787Z,245
2018-03-06T08:03:09.248Z,245
2018-03-06T08:04:19.328Z,240
2018-03-06T08:05:29.061Z,240
2018-03-06T08:06:38.700Z,240
2018-03-06T08:07:48.431Z,235
2018-03-06T08:08:58.422Z,235
2018-03-06T08:10:08.152Z,240
2018-03-06T08:11:18.148Z,240
2018-03-06T08:12:28.153Z,240
2018-03-06T08:13:37.875Z,240
2018-03-06T08:14:47.609Z,240
2018-03-06T08:15:57.429Z,240
2018-03-06T08:17:07.165Z,245
2018-03-06T08:18:16.896Z,250
2018-03-06T08:19:26.890Z,255
2018-03-06T08:20:36.610Z,260
2018-03-06T08:21:46.599Z,265
2018-03-06T08:22:56.331Z,275
2018-03-06T08:24:06.388Z,280
2018-03-06T08:25:16.386Z,290
2018-03-06T08:26:26.430Z,295
2018-03-06T08:27:36.422Z,300
2018-03-06T08:28:46.171Z,310
2018-03-06T08:29:55.606Z,320
2018-03-06T08:31:04.803Z,325
2018-03-06T08:32:14.799Z,330
2018-03-06T08:33:24.798Z,335
2018-03-06T08:34:34.526Z,335
2018-03-06T08:35:43.987Z,335
2018-03-06T08:36:53.710Z,340
2018-03-06T08:38:03.454Z,350
2018-03-06T08:39:13.192Z,360
2018-03-06T08:40:23.197Z,370
2018-03-06T08:41:32.922Z,380
2018-03-06T08:42:42.641Z,385
2018-03-06T08:43:52.369Z,385
2018-03-06T08:45:02.385Z,385
2018-03-06T08:46:12.378Z,380
2018-03-06T08:47:22.371Z,375
2018-03-06T08:48:32.407Z,380
2018-03-06T08:49:42.406Z,380
2018-03-06T08:50:51.859Z,375
2018-03-06T08:52:01.590Z,375
2018-03-06T08:53:11.316Z,380
2018-03-06T08:54:21.045Z,385
2018-03-06T08:55:30.775Z,395
2018-03-06T08:56:40.237Z,410
2018-03-06T08:57:50.400Z,425
2018-03-06T08:59:00.398Z,425
2018-03-06T09:00:09.859Z,430
2018-03-06T09:01:19.854Z,430
2018-03-06T09:02:29.610Z,435
2018-03-06T09:03:39.466Z,435
2018-03-06T09:04:49.469Z,430
2018-03-06T09:05:59.465Z,425
2018-03-06T09:07:09.201Z,420
2018-03-06T09:08:19.197Z,415
2018-03-06T09:09:28.932Z,415
2018-03-06T09:10:38.660Z,415
2018-03-06T09:11:48.395Z,415
2018-03-06T09:12:58.400Z,420
2018-03-06T09:14:08.392Z,425
2018-03-06T09:15:18.123Z,430
2018-03-06T09:16:27.585Z,430
2018-03-06T09:17:37.688Z,435
2018-03-06T09:18:47.417Z,435
2018-03-06T09:19:57.410Z,440
2018-03-06T09:21:07.400Z,445
2018-03-06T09:22:17.466Z,445
2018-03-06T09:23:27.199Z,445
2018-03-06T09:24:37.267Z,450
2018-03-06T09:25:47.045Z,445
2018-03-06T09:26:56.774Z,455
2018-03-06T09:28:06.771Z,460
2018-03-06T09:29:16.762Z,470
2018-03-06T09:30:26.553Z,480
2018-03-06T09:31:36.543Z,485
2018-03-06T09:32:46.543Z,485
2018-03-06T09:33:56.270Z,480
2018-03-06T09:35:06.271Z,480
2018-03-06T09:36:16.265Z,480
2018-03-06T09:37:25.735Z,485
2018-03-06T09:38:35.495Z,490
2018-03-06T09:39:45.224Z,490
2018-03-06T09:40:54.692Z,490
2018-03-06T09:42:04.148Z,490
2018-03-06T09:43:14.148Z,475
2018-03-06T09:44:24.154Z,475
2018-03-06T09:45:33.886Z,475
2018-03-06T09:46:43.621Z,475
2018-03-06T09:47:53.622Z,475
2018-03-06T09:49:03.084Z,470
2018-03-06T09:50:12.813Z,455
2018-03-06T09:51:22.545Z,445
2018-03-06T09:52:32.718Z,430
2018-03-06T09:53:42.760Z,420
2018-03-06T09:54:52.227Z,415
2018-03-06T09:56:02.226Z,420
2018-03-06T09:57:11.691Z,425
2018-03-06T09:58:21.688Z,435
2018-03-06T09:59:30.881Z,445
2018-03-06T10:00:40.886Z,455
2018-03-06T10:01:50.622Z,465
2018-03-06T10:03:00.702Z,475
2018-03-06T10:04:10.170Z,475
2018-03-06T10:05:20.172Z,470
2018-03-06T10:06:29.364Z,470
2018-03-06T10:07:39.088Z,460
2018-03-06T10:08:48.814Z,445
2018-03-06T10:09:58.537Z,430
2018-03-06T10:11:08.026Z,420
2018-03-06T10:12:17.753Z,415
2018-03-06T10:13:27.750Z,425
2018-03-06T10:14:37.211Z,430
2018-03-06T10:15:47.195Z,445
2018-03-06T10:16:57.321Z,455
2018-03-06T10:18:07.091Z,470
2018-03-06T10:19:17.088Z,485
2018-03-06T10:20:26.818Z,495
2018-03-06T10:21:36.546Z,495
2018-03-06T10:22:46.546Z,495
2018-03-06T10:23:56.624Z,490
2018-03-06T10:25:06.619Z,495
2018-03-06T10:26:16.610Z,500
2018-03-06T10:27:26.341Z,510
2018-03-06T10:28:36.335Z,515
2018-03-06T10:29:45.807Z,520
2018-03-06T10:30:55.272Z,520
2018-03-06T10:32:05.267Z,530
2018-03-06T10:33:14.729Z,535
2018-03-06T10:34:24.458Z,545
2018-03-06T10:35:34.189Z,550
2018-03-06T10:36:44.257Z,565
2018-03-06T10:37:53.713Z,575
2018-03-06T10:39:03.444Z,575
2018-03-06T10:40:13.237Z,575
2018-03-06T10:41:22.966Z,570
2018-03-06T10:42:32.956Z,565
2018-03-06T10:43:42.690Z,560
2018-03-06T10:44:52.690Z,555
2018-03-06T10:46:02.683Z,560
2018-03-06T10:47:12.192Z,560
2018-03-06T10:48:21.922Z,570
2018-03-06T10:49:31.390Z,570
2018-03-06T10:50:41.390Z,560
2018-03-06T10:51:51.414Z,550
2018-03-06T10:53:01.409Z,540
2018-03-06T10:54:10.880Z,535
2018-03-06T10:55:20.719Z,545
2018-03-06T10:56:30.711Z,560
2018-03-06T10:57:40.705Z,570
2018-03-06T10:58:50.714Z,570
2018-03-06T11:00:00.453Z,575
2018-03-06T11:01:10.283Z,575
2018-03-06T11:02:20.413Z,580
2018-03-06T11:03:30.407Z,590
2018-03-06T11:04:40.410Z,595
2018-03-06T11:05:50.406Z,605
2018-03-06T11:07:00.406Z,605
2018-03-06T11:08:10.209Z,600
2018-03-06T11:09:19.959Z,590
2018-03-06T11:10:29.965Z,580
2018-03-06T11:11:39.695Z,560
2018-03-06T11:12:49.711Z,550
2018-03-06T11:13:59.716Z,550
2018-03-06T11:15:09.181Z,550
2018-03-06T11:16:18.912Z,550
2018-03-06T11:17:28.644Z,555
2018-03-06T11:18:38.770Z,550
2018-03-06T11:19:48.778Z,545
2018-03-06T11:20:58.779Z,540
2018-03-06T11:22:08.528Z,535
2018-03-06T11:23:18.532Z,530
2018-03-06T11:24:28.267Z,525
2018-03-06T11:25:38.265Z,520
2018-03-06T11:26:48.267Z,515
2018-03-06T11:27:58.273Z,505
2018-03-06T11:29:08.009Z,505
2018-03-06T11:30:17.475Z,500
2018-03-06T11:31:27.474Z,495
2018-03-06T11:32:37.200Z,490
2018-03-06T11:33:46.927Z,490
2018-03-06T11:34:56.925Z,475
2018-03-06T11:36:06.658Z,470
2018-03-06T11:37:16.391Z,465
2018-03-06T11:38:26.388Z,460
2018-03-06T11:39:36.116Z,465
2018-03-06T11:40:46.112Z,475
2018-03-06T11:41:55.847Z,475
2018-03-06T11:43:05.628Z,475
2018-03-06T11:44:15.364Z,475
2018-03-06T11:45:25.362Z,475
2018-03-06T11:46:35.375Z,475
2018-03-06T11:47:45.370Z,475
2018-03-06T11:48:54.844Z,480
2018-03-06T11:50:04.574Z,485
2018-03-06T11:51:14.036Z,490
2018-03-06T11:52:23.768Z,485
2018-03-06T11:53:33.236Z,475
2018-03-06T11:54:43.233Z,475
2018-03-06T11:55:53.237Z,465
2018-03-06T11:57:02.700Z,465
2018-03-06T11:58:12.434Z,465
2018-03-06T11:59:22.435Z,470
2018-03-06T12:00:32.432Z,475
2018-03-06T12:01:41.902Z,485
2018-03-06T12:02:51.632Z,490
2018-03-06T12:04:01.815Z,495
2018-03-06T12:05:11.284Z,495
2018-03-06T12:06:20.751Z,495
2018-03-06T12:07:30.480Z,500
2018-03-06T12:08:40.476Z,495
2018-03-06T12:09:49.938Z,495
2018-03-06T12:10:59.937Z,495
2018-03-06T12:12:09.400Z,495
2018-03-06T12:13:19.133Z,500
2018-03-06T12:14:29.131Z,500
2018-03-06T12:15:39.123Z,495
2018-03-06T12:16:49.127Z,495
2018-03-06T12:17:58.874Z,490
2018-03-06T12:19:08.611Z,490
2018-03-06T12:20:18.349Z,490
2018-03-06T12:21:28.399Z,490
2018-03-06T12:22:38.134Z,490
2018-03-06T12:23:48.130Z,495
2018-03-06T12:24:57.598Z,495
2018-03-06T12:26:07.596Z,495
2018-03-06T12:27:17.601Z,490
2018-03-06T12:28:27.599Z,490
2018-03-06T12:29:37.600Z,495
2018-03-06T12:30:47.603Z,500
2018-03-06T12:31:57.596Z,505
2018-03-06T12:33:07.327Z,510
2018-03-06T12:34:17.330Z,520
2018-03-06T12:35:27.060Z,525
2018-03-06T12:36:37.078Z,535
2018-03-06T12:37:47.077Z,540
2018-03-06T12:38:57.079Z,540
2018-03-06T12:40:06.822Z,535
2018-03-06T12:41:16.823Z,535
2018-03-06T12:42:26.601Z,535
2018-03-06T12:43:36.621Z,535
2018-03-06T12:44:46.349Z,530
2018-03-06T12:45:55.822Z,525
2018-03-06T12:47:05.551Z,515
2018-03-06T12:48:15.557Z,510
2018-03-06T12:49:25.632Z,500
2018-03-06T12:50:35.095Z,495
2018-03-06T12:51:44.826Z,500
2018-03-06T12:52:54.290Z,490
2018-03-06T12:54:04.286Z,485
2018-03-06T12:55:14.386Z,485
2018-03-06T12:56:24.115Z,480
2018-03-06T12:57:34.116Z,480
2018-03-06T12:58:43.582Z,480
2018-03-06T12:59:53.311Z,475
2018-03-06T13:01:03.052Z,470
2018-03-06T13:02:13.054Z,470
2018-03-06T13:03:23.048Z,465
2018-03-06T13:04:32.512Z,460
2018-03-06T13:05:41.973Z,460
2018-03-06T13:06:51.971Z,455
2018-03-06T13:08:01.970Z,445
2018-03-06T13:09:11.447Z,440
2018-03-06T13:10:20.908Z,430
2018-03-06T13:11:30.903Z,425
2018-03-06T13:12:41.034Z,425
2018-03-06T13:13:51.032Z,420
2018-03-06T13:15:00.769Z,415
2018-03-06T13:16:09.706Z,410
2018-03-06T13:17:19.744Z,395
2018-03-06T13:18:29.765Z,380
2018-03-06T13:19:39.500Z,365
2018-03-06T13:20:49.502Z,355
2018-03-06T13:21:59.227Z,350
2018-03-06T13:23:08.431Z,345
2018-03-06T13:24:18.422Z,345
2018-03-06T13:25:27.887Z,350
2018-03-06T13:26:37.084Z,345
2018-03-06T13:27:47.079Z,345
2018-03-06T13:28:57.079Z,345
2018-03-06T13:30:07.125Z,345
2018-03-06T13:31:16.594Z,345
2018-03-06T13:32:26.593Z,345
2018-03-06T13:33:36.593Z,345
2018-03-06T13:34:46.333Z,340
2018-03-06T13:35:56.330Z,330
2018-03-06T13:37:06.058Z,320
2018-03-06T13:38:16.053Z,315
2018-03-06T13:39:26.066Z,320
2018-03-06T13:40:35.799Z,325
2018-03-06T13:41:45.533Z,315
2018-03-06T13:42:55.535Z,310
2018-03-06T13:44:05.004Z,300
2018-03-06T13:45:14.520Z,295
2018-03-06T13:46:24.516Z,295
2018-03-06T13:47:34.268Z,295
2018-03-06T13:48:44.263Z,295
2018-03-06T13:49:54.264Z,290
2018-03-06T13:51:03.991Z,285
2018-03-06T13:52:14.247Z,280
2018-03-06T13:53:24.324Z,275
2018-03-06T13:54:33.517Z,270
2018-03-06T13:55:43.252Z,270
2018-03-06T13:56:53.257Z,265
2018-03-06T13:58:03.255Z,265
2018-03-06T13:59:13.255Z,265
2018-03-06T14:00:22.740Z,260
2018-03-06T14:01:32.210Z,255
2018-03-06T14:02:41.942Z,245
2018-03-06T14:03:51.672Z,240
2018-03-06T14:05:01.402Z,235
2018-03-06T14:06:11.404Z,230
2018-03-06T14:07:20.873Z,230
2018-03-06T14:08:30.869Z,230
2018-03-06T14:09:40.871Z,230
2018-03-06T14:10:50.370Z,230
2018-03-06T14:12:00.100Z,225
2018-03-06T14:13:09.298Z,225
2018-03-06T14:14:19.310Z,220
2018-03-06T14:15:29.129Z,225
2018-03-06T14:16:39.158Z,225
2018-03-06T14:17:48.628Z,225
2018-03-06T14:18:58.620Z,225
2018-03-06T14:20:07.824Z,225
2018-03-06T14:21:17.820Z,225
2018-03-06T14:22:27.820Z,225
2018-03-06T14:23:37.549Z,220
2018-03-06T14:24:47.287Z,220
2018-03-06T14:25:57.283Z,220
2018-03-06T14:27:07.017Z,215
2018-03-06T14:28:17.021Z,210
2018-03-06T14:29:26.749Z,210
2018-03-06T14:30:36.745Z,210
2018-03-06T14:31:46.735Z,205
2018-03-06T14:32:56.725Z,200
2018-03-06T14:34:06.460Z,190
2018-03-06T14:35:15.918Z,190
2018-03-06T14:36:25.646Z,190
2018-03-06T14:37:35.744Z,185
2018-03-06T14:38:45.747Z,185
2018-03-06T14:39:55.475Z,180
2018-03-06T14:41:05.220Z,180
2018-03-06T14:42:14.950Z,180
2018-03-06T14:43:24.940Z,180
2018-03-06T14:44:34.396Z,180
2018-03-06T14:45:44.393Z,180
2018-03-06T14:46:54.389Z,180
2018-03-06T14:48:04.414Z,180
2018-03-06T14:49:14.411Z,180
2018-03-06T14:50:24.152Z,175
2018-03-06T14:51:34.182Z,175
2018-03-06T14:52:44.179Z,175
2018-03-06T14:53:54.173Z,175
2018-03-06T14:55:04.177Z,175
2018-03-06T14:56:14.171Z,175
2018-03-06T14:57:24.172Z,175
2018-03-06T14:58:33.627Z,170
2018-03-06T14:59:43.628Z,170
2018-03-06T15:00:53.359Z,165
2018-03-06T15:02:03.092Z,160
2018-03-06T15:03:12.848Z,160
2018-03-06T15:04:22.574Z,155
2018-03-06T15:05:32.573Z,150
2018-03-06T15:06:42.633Z,145
2018-03-06T15:07:52.362Z,145
2018-03-06T15:09:02.463Z,140
2018-03-06T15:10:11.917Z,135
2018-03-06T15:11:21.645Z,135
2018-03-06T15:12:31.658Z,130
2018-03-06T15:13:41.651Z,130
2018-03-06T15:14:51.643Z,130
2018-03-06T15:16:01.637Z,130
2018-03-06T15:17:11.627Z,125
2018-03-06T15:18:21.624Z,125
2018-03-06T15:19:31.619Z,120
2018-03-06T15:20:41.085Z,115
2018-03-06T15:21:51.083Z,110
2018-03-06T15:23:01.081Z,110
2018-03-06T15:24:10.552Z,105
2018-03-06T15:25:20.551Z,105
2018-03-06T15:26:30.543Z,105
2018-03-06T15:27:40.536Z,105
2018-03-06T15:28:50.262Z,100
2018-03-06T15:30:00.001Z,100
2018-03-06T15:31:09.288Z,100
2018-03-06T15:32:19.282Z,95
2018-03-06T15:33:29.288Z,95
2018-03-06T15:34:39.288Z,95
2018-03-06T15:35:49.283Z,95
2018-03-06T15:36:59.428Z,95
2018-03-06T15:38:09.421Z,95
2018-03-06T15:39:19.148Z,95
2018-03-06T15:40:28.610Z,95
2018-03-06T15:41:38.332Z,90
2018-03-06T15:42:47.794Z,85
2018-03-06T15:43:57.786Z,85
2018-03-06T15:45:07.524Z,85
2018-03-06T15:46:17.250Z,80
2018-03-06T15:47:27.024Z,80
2018-03-06T15:48:37.014Z,75
2018-03-06T15:49:47.109Z,75
2018-03-06T15:50:56.834Z,75
2018-03-06T15:52:06.832Z,70
2018-03-06T15:53:16.824Z,70
2018-03-06T15:54:26.870Z,65
2018-03-06T15:55:36.615Z,65
2018-03-06T15:56:46.613Z,60
2018-03-06T15:57:56.606Z,60
2018-03-06T15:59:06.601Z,60
2018-03-06T16:00:16.603Z,60
2018-03-06T16:01:26.602Z,55
2018-03-06T16:02:36.333Z,55
2018-03-06T16:03:46.061Z,55
2018-03-06T16:04:55.786Z,55
2018-03-06T16:06:05.246Z,50
2018-03-06T16:07:14.976Z,50
2018-03-06T16:08:24.981Z,45
2018-03-06T16:09:34.738Z,45
2018-03-06T16:10:44.736Z,45
2018-03-06T16:11:54.729Z,40
2018-03-06T16:13:04.508Z,40
2018-03-06T16:14:14.498Z,40
2018-03-06T16:15:24.225Z,35
2018-03-06T16:16:34.234Z,35
2018-03-06T16:17:43.953Z,35
2018-03-06T16:18:53.948Z,35
2018-03-06T16:20:03.951Z,30
2018-03-06T16:21:13.949Z,30
2018-03-06T16:22:23.940Z,30
2018-03-06T16:23:33.663Z,25
2018-03-06T16:24:43.661Z,25
2018-03-06T16:25:53.660Z,25
2018-03-06T16:27:03.393Z,25
2018-03-06T16:28:12.850Z,25
2018-03-06T16:29:22.839Z,20
2018-03-06T16:30:32.028Z,20
2018-03-06T16:31:42.017Z,20
2018-03-06T16:32:52.012Z,20
2018-03-06T16:34:01.736Z,20
2018-03-06T16:35:11.726Z,15
2018-03-06T16:36:21.804Z,15
2018-03-06T16:37:31.806Z,15
2018-03-06T16:38:41.530Z,15